createdAt,value
2022-10-19T00:00:04.219Z,6.50
2022-10-19T00:02:54.840Z,5.30
2022-10-19T00:07:55.770Z,4.50
2022-10-19T00:10:26.705Z,4.90
2022-10-19T00:12:57.770Z,5.40
2022-10-19T00:15:28.704Z,6.00
2022-10-19T00:18:00.093Z,5.30
2022-10-19T00:20:30.963Z,6.10
2022-10-19T00:23:01.788Z,5.00
2022-10-19T00:25:32.820Z,4.80
2022-10-19T00:28:03.889Z,4.20
2022-10-19T00:30:40.625Z,4.40
2022-10-19T00:33:21.869Z,6.10
2022-10-19T00:35:53.940Z,5.50
2022-10-19T00:38:25.193Z,5.70
2022-10-19T00:40:56.201Z,4.60
2022-10-19T00:43:31.793Z,4.50
2022-10-19T00:46:02.532Z,5.50
2022-10-19T00:48:35.058Z,5.30
2022-10-19T00:51:06.486Z,5.10
2022-10-19T00:53:38.440Z,4.50
2022-10-19T00:56:14.106Z,4.80
2022-10-19T00:58:46.508Z,5.20
2022-10-19T01:01:21.201Z,4.30
2022-10-19T01:03:51.979Z,4.90
2022-10-19T01:06:24.513Z,9.50
2022-10-19T01:08:55.540Z,5.50
2022-10-19T01:11:39.778Z,6.20
2022-10-19T01:14:27.107Z,5.70
2022-10-19T01:17:06.304Z,5.10
2022-10-19T01:20:20.510Z,5.30
2022-10-19T01:23:06.827Z,6.30
2022-10-19T01:25:49.665Z,4.30
2022-10-19T01:28:40.411Z,3.60
2022-10-19T01:31:23.505Z,3.60
2022-10-19T01:34:01.134Z,3.30
2022-10-19T01:36:41.489Z,4.00
2022-10-19T01:39:18.753Z,3.50
2022-10-19T01:42:00.006Z,2.90
2022-10-19T01:44:37.707Z,3.10
2022-10-19T01:47:12.944Z,3.10
2022-10-19T01:49:48.425Z,2.70
2022-10-19T01:52:22.765Z,3.70
2022-10-19T01:55:04.222Z,2.80
2022-10-19T01:57:38.243Z,3.30
2022-10-19T02:00:12.472Z,4.30
2022-10-19T02:02:47.536Z,3.70
2022-10-19T02:05:21.576Z,4.40
2022-10-19T02:07:56.042Z,3.80
2022-10-19T02:10:28.787Z,3.40
2022-10-19T02:13:01.025Z,3.60
2022-10-19T02:15:35.775Z,3.10
2022-10-19T02:18:08.267Z,3.80
2022-10-19T02:20:39.442Z,3.00
2022-10-19T02:23:10.703Z,3.10
2022-10-19T02:25:41.758Z,2.60
2022-10-19T02:28:12.749Z,2.80
2022-10-19T02:33:13.655Z,3.00
2022-10-19T02:35:44.940Z,3.00
2022-10-19T02:38:20.918Z,2.70
2022-10-19T02:40:59.607Z,2.60
2022-10-19T02:43:34.468Z,2.00
2022-10-19T02:46:09.264Z,2.60
2022-10-19T02:48:41.584Z,2.60
2022-10-19T02:51:35.981Z,2.20
2022-10-19T02:54:08.891Z,2.50
2022-10-19T02:56:39.739Z,2.50
2022-10-19T02:59:10.494Z,3.00
2022-10-19T03:01:41.416Z,3.10
2022-10-19T03:04:12.476Z,3.30
2022-10-19T03:06:43.443Z,2.80
2022-10-19T03:09:14.173Z,2.40
2022-10-19T03:11:45.119Z,2.50
2022-10-19T03:14:16.071Z,2.40
2022-10-19T03:16:47.459Z,2.30
2022-10-19T03:19:18.389Z,2.20
2022-10-19T03:21:49.686Z,2.70
2022-10-19T03:24:20.763Z,2.10
2022-10-19T03:26:51.670Z,2.00
2022-10-19T03:29:22.652Z,2.30
2022-10-19T03:31:53.873Z,2.90
2022-10-19T03:34:24.769Z,2.60
2022-10-19T03:36:56.732Z,2.60
2022-10-19T03:39:27.899Z,1.90
2022-10-19T03:41:58.819Z,2.90
2022-10-19T03:46:59.442Z,2.00
2022-10-19T03:49:30.477Z,1.80
2022-10-19T03:52:01.553Z,2.50
2022-10-19T03:54:32.985Z,2.70
2022-10-19T03:57:04.271Z,2.20
2022-10-19T03:59:34.999Z,2.50
2022-10-19T04:02:06.683Z,2.40
2022-10-19T04:04:37.940Z,2.20
2022-10-19T04:07:08.814Z,1.90
2022-10-19T04:09:40.411Z,8.70
2022-10-19T04:12:11.427Z,7.50
2022-10-19T04:14:58.068Z,19.30
2022-10-19T04:17:29.499Z,11.10
2022-10-19T04:20:00.329Z,8.60
2022-10-19T04:22:31.522Z,4.70
2022-10-19T04:25:02.289Z,4.30
2022-10-19T04:27:33.378Z,4.40
2022-10-19T04:30:04.876Z,3.60
2022-10-19T04:32:36.024Z,3.60
2022-10-19T04:35:08.413Z,4.50
2022-10-19T04:37:39.713Z,4.50
2022-10-19T04:40:15.028Z,6.20
2022-10-19T04:42:46.387Z,4.50
2022-10-19T04:45:17.921Z,5.30
2022-10-19T04:47:49.032Z,4.60
2022-10-19T04:50:20.106Z,4.40
2022-10-19T04:52:50.966Z,4.70
2022-10-19T04:55:21.908Z,4.50
2022-10-19T04:57:53.047Z,4.30
2022-10-19T05:00:24.140Z,5.80
2022-10-19T05:02:55.023Z,7.40
2022-10-19T05:05:26.793Z,6.70
2022-10-19T05:07:57.638Z,6.60
2022-10-19T05:10:28.895Z,5.90
2022-10-19T05:15:29.318Z,5.00
2022-10-19T05:18:00.515Z,5.20
2022-10-19T05:20:31.233Z,4.70
2022-10-19T05:23:06.249Z,4.00
2022-10-19T05:25:38.470Z,4.90
2022-10-19T05:28:09.366Z,6.30
2022-10-19T05:30:40.113Z,5.30
2022-10-19T05:33:10.879Z,4.50
2022-10-19T05:35:41.789Z,8.40
2022-10-19T05:38:12.838Z,8.00
2022-10-19T05:40:52.879Z,7.20
2022-10-19T05:43:24.826Z,7.30
2022-10-19T05:45:55.938Z,6.10
2022-10-19T05:48:28.088Z,6.00
2022-10-19T05:50:59.066Z,6.00
2022-10-19T05:53:30.544Z,5.00
2022-10-19T05:56:01.469Z,5.60
2022-10-19T05:58:32.815Z,4.80
2022-10-19T06:01:04.144Z,4.30
2022-10-19T06:03:35.612Z,4.70
2022-10-19T06:06:07.704Z,4.20
2022-10-19T06:08:39.438Z,4.50
2022-10-19T06:11:12.616Z,5.70
2022-10-19T06:13:45.098Z,5.20
2022-10-19T06:16:17.888Z,6.90
2022-10-19T06:18:49.002Z,6.00
2022-10-19T06:21:21.775Z,10.10
2022-10-19T06:23:54.918Z,9.90
2022-10-19T06:26:27.063Z,11.80
2022-10-19T06:29:00.674Z,9.60
2022-10-19T06:31:33.680Z,9.60
2022-10-19T06:34:05.255Z,8.80
2022-10-19T06:36:36.642Z,12.40
2022-10-19T06:39:07.952Z,10.90
2022-10-19T06:41:38.950Z,6.60
2022-10-19T06:44:10.228Z,7.20
2022-10-19T06:49:13.488Z,6.30
2022-10-19T06:51:44.423Z,4.10
2022-10-19T06:54:15.138Z,5.00
2022-10-19T06:56:46.162Z,5.30
2022-10-19T06:59:17.707Z,5.80
2022-10-19T07:01:48.636Z,6.10
2022-10-19T07:04:19.520Z,6.50
2022-10-19T07:06:50.392Z,31.40
2022-10-19T07:09:22.499Z,20.10
2022-10-19T07:11:53.348Z,15.70
2022-10-19T07:14:25.531Z,18.00
2022-10-19T07:16:56.687Z,11.90
2022-10-19T07:19:29.784Z,10.20
2022-10-19T07:22:00.849Z,7.10
2022-10-19T07:24:31.975Z,3.90
2022-10-19T07:27:02.817Z,3.70
2022-10-19T07:29:33.939Z,5.60
2022-10-19T07:32:05.351Z,11.70
2022-10-19T07:34:36.038Z,4.70
2022-10-19T07:37:09.524Z,3.90
2022-10-19T07:42:10.009Z,3.30
2022-10-19T07:44:40.943Z,1.50
2022-10-19T07:47:11.977Z,1.20
2022-10-19T07:49:42.981Z,1.40
2022-10-19T07:52:13.997Z,1.80
2022-10-19T07:54:46.799Z,1.80
2022-10-19T07:57:18.032Z,1.10
2022-10-19T07:59:48.908Z,1.10
2022-10-19T08:02:20.481Z,1.80
2022-10-19T08:05:09.235Z,1.20
2022-10-19T08:07:42.150Z,1.30
2022-10-19T08:12:42.715Z,1.40
2022-10-19T08:15:13.829Z,1.70
2022-10-19T08:17:44.810Z,2.00
2022-10-19T08:20:15.673Z,1.20
2022-10-19T08:22:46.983Z,1.30
2022-10-19T08:25:18.210Z,1.30
2022-10-19T08:27:48.978Z,1.50
2022-10-19T08:30:20.228Z,1.10
2022-10-19T08:32:51.199Z,1.00
2022-10-19T08:37:52.060Z,1.30
2022-10-19T08:40:27.212Z,1.60
2022-10-19T08:43:02.818Z,1.20
2022-10-19T08:45:42.783Z,1.40
2022-10-19T08:48:32.926Z,1.00
2022-10-19T08:51:04.367Z,1.30
2022-10-19T08:53:42.884Z,1.30
2022-10-19T08:56:45.700Z,1.00
2022-10-19T08:59:20.949Z,1.00
2022-10-19T09:01:56.053Z,1.00
2022-10-19T09:04:32.200Z,0.80
2022-10-19T09:07:24.525Z,1.10
2022-10-19T09:09:59.119Z,1.00
2022-10-19T09:12:41.476Z,1.00
2022-10-19T09:15:19.104Z,0.80
2022-10-19T09:17:50.328Z,0.90
2022-10-19T09:20:24.315Z,1.10
2022-10-19T09:23:02.138Z,1.00
2022-10-19T09:25:38.750Z,0.80
2022-10-19T09:28:39.862Z,0.80
2022-10-19T09:31:16.514Z,0.70
2022-10-19T09:33:52.792Z,1.00
2022-10-19T09:36:39.289Z,1.20
2022-10-19T09:39:16.765Z,1.20
2022-10-19T09:41:52.336Z,1.50
2022-10-19T09:44:24.407Z,0.90
2022-10-19T09:47:04.383Z,2.10
2022-10-19T09:49:46.302Z,1.40
2022-10-19T09:52:35.365Z,1.10
2022-10-19T09:55:18.892Z,1.30
2022-10-19T09:57:51.243Z,1.50
2022-10-19T10:00:24.461Z,1.60
2022-10-19T10:02:56.869Z,1.30
2022-10-19T10:05:34.263Z,1.60
2022-10-19T10:10:44.100Z,2.20
2022-10-19T10:13:20.768Z,1.20
2022-10-19T10:15:56.897Z,1.60
2022-10-19T10:18:29.714Z,1.90
2022-10-19T10:21:06.067Z,1.40
2022-10-19T10:23:38.278Z,1.70
2022-10-19T10:26:19.949Z,1.50
2022-10-19T10:28:52.060Z,1.60
2022-10-19T10:31:27.341Z,1.70
2022-10-19T10:34:12.229Z,1.70
2022-10-19T10:36:56.530Z,1.50
2022-10-19T10:39:28.859Z,1.90
2022-10-19T10:42:06.332Z,1.30
2022-10-19T10:44:39.212Z,1.60
2022-10-19T10:47:18.042Z,1.50
2022-10-19T10:49:57.942Z,1.50
2022-10-19T10:52:32.028Z,1.10
2022-10-19T10:55:05.971Z,1.10
2022-10-19T10:57:41.196Z,1.60
2022-10-19T11:00:15.467Z,2.00
2022-10-19T11:02:52.640Z,1.10
2022-10-19T11:05:26.797Z,1.20
2022-10-19T11:08:04.376Z,4.40
2022-10-19T11:10:40.463Z,1.40
2022-10-19T11:13:19.601Z,1.20
2022-10-19T11:15:56.869Z,2.40
2022-10-19T11:18:31.724Z,1.50
2022-10-19T11:21:10.798Z,1.50
2022-10-19T11:23:55.196Z,0.90
2022-10-19T11:26:43.012Z,2.60
2022-10-19T11:29:35.331Z,1.10
2022-10-19T11:32:13.331Z,1.20
2022-10-19T11:34:58.317Z,1.10
2022-10-19T11:37:45.527Z,1.40
2022-10-19T11:40:28.908Z,1.10
2022-10-19T11:43:07.031Z,1.60
2022-10-19T11:45:49.307Z,0.90
2022-10-19T11:48:43.057Z,1.70
2022-10-19T11:51:22.156Z,1.10
2022-10-19T11:54:10.020Z,1.10
2022-10-19T11:57:03.231Z,1.40
2022-10-19T11:59:46.266Z,2.10
2022-10-19T12:02:39.540Z,2.70
2022-10-19T12:05:17.294Z,1.60
2022-10-19T12:07:58.044Z,2.50
2022-10-19T12:10:35.395Z,2.80
2022-10-19T12:13:11.951Z,2.50
2022-10-19T12:15:47.570Z,7.90
2022-10-19T12:18:24.937Z,4.20
2022-10-19T12:20:59.797Z,3.00
2022-10-19T12:23:33.661Z,2.90
2022-10-19T12:26:08.565Z,2.30
2022-10-19T12:28:44.208Z,1.60
2022-10-19T12:31:16.204Z,6.10
2022-10-19T12:33:54.567Z,6.80
2022-10-19T12:36:38.533Z,5.00
2022-10-19T12:39:19.304Z,1.60
2022-10-19T12:41:54.724Z,3.70
2022-10-19T12:44:43.830Z,1.80
2022-10-19T12:47:18.928Z,2.60
2022-10-19T12:49:55.643Z,7.80
2022-10-19T12:52:46.110Z,3.10
2022-10-19T12:55:34.930Z,1.60
2022-10-19T12:58:22.858Z,2.20
2022-10-19T13:01:03.336Z,7.10
2022-10-19T13:03:37.980Z,3.10
2022-10-19T13:06:13.856Z,6.20
2022-10-19T13:08:48.675Z,2.40
2022-10-19T13:11:20.606Z,1.80
2022-10-19T13:13:58.605Z,3.50
2022-10-19T13:17:02.254Z,1.30
2022-10-19T13:19:33.267Z,2.30
2022-10-19T13:22:30.109Z,6.40
2022-10-19T13:25:28.248Z,2.50
2022-10-19T13:28:23.195Z,1.60
2022-10-19T13:31:23.321Z,1.00
2022-10-19T13:33:55.688Z,1.30
2022-10-19T13:36:27.753Z,1.20
2022-10-19T13:39:14.768Z,1.00
2022-10-19T13:41:51.703Z,2.50
2022-10-19T13:44:34.023Z,2.90
2022-10-19T13:47:33.156Z,1.10
2022-10-19T13:50:36.508Z,0.90
2022-10-19T13:53:24.699Z,0.80
2022-10-19T13:56:16.426Z,1.50
2022-10-19T13:59:32.162Z,1.00
2022-10-19T14:02:54.053Z,0.90
2022-10-19T14:08:31.500Z,1.00
2022-10-19T14:11:06.544Z,1.10
2022-10-19T14:13:37.648Z,1.30
2022-10-19T14:16:18.446Z,1.70
2022-10-19T14:18:56.556Z,1.10
2022-10-19T14:21:37.985Z,0.90
2022-10-19T14:24:22.633Z,1.10
2022-10-19T14:26:54.225Z,0.80
2022-10-19T14:29:25.195Z,1.80
2022-10-19T14:31:56.211Z,0.90
2022-10-19T14:34:27.249Z,0.80
2022-10-19T14:36:58.273Z,1.70
2022-10-19T14:39:33.434Z,3.60
2022-10-19T14:42:12.768Z,12.40
2022-10-19T14:44:45.722Z,1.50
2022-10-19T14:47:27.195Z,1.40
2022-10-19T14:49:58.434Z,3.50
2022-10-19T14:52:33.922Z,1.40
2022-10-19T14:55:12.669Z,4.10
2022-10-19T14:57:51.732Z,3.40
2022-10-19T15:03:05.763Z,1.60
2022-10-19T15:05:42.527Z,3.60
2022-10-19T15:08:22.147Z,2.00
2022-10-19T15:10:53.500Z,0.80
2022-10-19T15:13:30.498Z,2.80
2022-10-19T15:16:01.244Z,7.50
2022-10-19T15:18:55.438Z,4.00
2022-10-19T15:21:27.290Z,2.50
2022-10-19T15:24:09.366Z,1.80
2022-10-19T15:26:40.282Z,1.50
2022-10-19T15:29:20.404Z,16.20
2022-10-19T15:31:56.383Z,4.50
2022-10-19T15:34:30.919Z,4.00
2022-10-19T15:37:03.583Z,8.50
2022-10-19T15:39:41.141Z,19.90
2022-10-19T15:42:37.864Z,3.20
2022-10-19T15:45:36.260Z,1.40
2022-10-19T15:48:30.057Z,1.90
2022-10-19T15:51:01.105Z,1.70
2022-10-19T15:58:38.114Z,1.30
2022-10-19T16:03:42.029Z,2.10
2022-10-19T16:06:13.995Z,1.70
2022-10-19T16:08:46.226Z,3.10
2022-10-19T16:11:19.093Z,1.00
2022-10-19T16:13:50.120Z,1.30
2022-10-19T16:16:24.983Z,1.00
2022-10-19T16:18:56.272Z,1.00
2022-10-19T16:21:30.304Z,1.30
2022-10-19T16:24:01.691Z,1.70
2022-10-19T16:26:33.184Z,1.80
2022-10-19T16:29:04.114Z,1.50
2022-10-19T16:31:35.169Z,2.10
2022-10-19T16:34:06.507Z,2.20
2022-10-19T16:36:37.542Z,1.90
2022-10-19T16:39:08.375Z,2.10
2022-10-19T16:44:14.318Z,1.80
2022-10-19T16:46:45.263Z,1.40
2022-10-19T16:51:45.869Z,1.70
2022-10-19T16:54:17.714Z,1.80
2022-10-19T16:56:50.162Z,2.40
2022-10-19T16:59:21.566Z,3.50
2022-10-19T17:01:53.936Z,3.20
2022-10-19T17:04:26.159Z,4.30
2022-10-19T17:06:57.665Z,4.50
2022-10-19T17:09:44.284Z,3.70
2022-10-19T17:12:16.068Z,4.10
2022-10-19T17:14:47.215Z,4.20
2022-10-19T17:17:18.150Z,4.90
2022-10-19T17:19:49.344Z,4.30
2022-10-19T17:22:20.242Z,4.90
2022-10-19T17:24:51.213Z,4.60
2022-10-19T17:29:52.079Z,4.60
2022-10-19T17:32:23.027Z,4.90
2022-10-19T17:34:56.059Z,5.60
2022-10-19T17:37:26.922Z,5.20
2022-10-19T17:39:58.208Z,5.60
2022-10-19T17:42:29.114Z,5.70
2022-10-19T17:45:00.285Z,6.50
2022-10-19T17:47:31.598Z,6.90
2022-10-19T17:50:02.878Z,6.60
2022-10-19T17:52:33.933Z,7.50
2022-10-19T17:55:12.286Z,9.90
2022-10-19T17:57:43.964Z,8.00
2022-10-19T18:00:16.327Z,9.20
2022-10-19T18:02:48.898Z,7.10
2022-10-19T18:05:20.622Z,7.90
2022-10-19T18:07:53.805Z,6.70
2022-10-19T18:10:24.670Z,6.20
2022-10-19T18:12:55.601Z,6.20
2022-10-19T18:15:26.588Z,6.00
2022-10-19T18:17:57.274Z,6.40
2022-10-19T18:20:28.478Z,7.00
2022-10-19T18:22:59.231Z,7.00
2022-10-19T18:25:42.562Z,8.30
2022-10-19T18:28:21.435Z,9.00
2022-10-19T18:30:52.651Z,8.80
2022-10-19T18:33:23.680Z,9.00
2022-10-19T18:35:58.671Z,8.40
2022-10-19T18:38:29.657Z,9.00
2022-10-19T18:41:04.364Z,10.00
2022-10-19T18:43:35.506Z,9.20
2022-10-19T18:46:07.080Z,8.60
2022-10-19T18:48:39.304Z,9.50
2022-10-19T18:51:10.823Z,9.40
2022-10-19T18:53:41.821Z,10.20
2022-10-19T18:56:15.387Z,10.70
2022-10-19T18:58:46.873Z,11.30
2022-10-19T19:01:20.401Z,9.50
2022-10-19T19:03:52.888Z,11.20
2022-10-19T19:06:25.722Z,39.60
2022-10-19T19:08:58.747Z,30.90
2022-10-19T19:11:34.303Z,14.60
2022-10-19T19:14:12.656Z,11.50
2022-10-19T19:16:44.863Z,11.00
2022-10-19T19:19:17.477Z,14.50
2022-10-19T19:21:49.839Z,11.20
2022-10-19T19:24:22.955Z,15.90
2022-10-19T19:26:55.959Z,10.90
2022-10-19T19:29:27.998Z,13.40
2022-10-19T19:31:58.980Z,11.40
2022-10-19T19:34:29.871Z,14.70
2022-10-19T19:37:00.883Z,14.80
2022-10-19T19:39:32.217Z,13.20
2022-10-19T19:42:03.414Z,8.00
2022-10-19T19:44:34.920Z,10.70
2022-10-19T19:47:05.958Z,7.10
2022-10-19T19:49:37.026Z,7.80
2022-10-19T19:52:08.399Z,8.40
2022-10-19T19:57:08.912Z,6.60
2022-10-19T19:59:39.983Z,7.50
2022-10-19T20:02:11.794Z,8.10
2022-10-19T20:04:43.083Z,7.30
2022-10-19T20:07:14.218Z,7.60
2022-10-19T20:09:45.181Z,6.00
2022-10-19T20:12:16.006Z,6.80
2022-10-19T20:14:47.235Z,7.40
2022-10-19T20:17:23.560Z,7.80
2022-10-19T20:19:54.358Z,8.20
2022-10-19T20:22:26.185Z,7.80
2022-10-19T20:24:57.148Z,8.30
2022-10-19T20:27:28.226Z,7.80
2022-10-19T20:29:59.412Z,7.90
2022-10-19T20:32:31.262Z,7.40
2022-10-19T20:35:03.657Z,8.50
2022-10-19T20:37:34.622Z,6.90
2022-10-19T20:42:42.412Z,6.00
2022-10-19T20:45:14.084Z,7.20
2022-10-19T20:47:44.930Z,6.80
2022-10-19T20:50:17.082Z,6.50
2022-10-19T20:52:50.350Z,5.90
2022-10-19T20:55:22.103Z,9.10
2022-10-19T20:57:53.017Z,10.70
2022-10-19T21:00:24.081Z,9.50
2022-10-19T21:02:55.611Z,8.10
2022-10-19T21:07:56.698Z,10.10
2022-10-19T21:10:27.603Z,9.90
2022-10-19T21:12:58.888Z,8.70
2022-10-19T21:15:30.039Z,10.60
2022-10-19T21:18:00.860Z,10.00
2022-10-19T21:20:31.753Z,10.50
2022-10-19T21:23:02.529Z,14.10
2022-10-19T21:25:33.451Z,8.20
2022-10-19T21:28:04.363Z,8.00
2022-10-19T21:30:36.471Z,6.30
2022-10-19T21:33:07.395Z,7.60
2022-10-19T21:35:39.586Z,8.50
2022-10-19T21:38:10.611Z,8.00
2022-10-19T21:40:41.449Z,6.80
2022-10-19T21:43:12.798Z,8.20
2022-10-19T21:45:44.710Z,8.70
2022-10-19T21:48:18.540Z,6.80
2022-10-19T21:50:50.029Z,8.10
2022-10-19T21:53:25.715Z,11.20
2022-10-19T21:56:00.288Z,8.30
2022-10-19T21:58:31.055Z,7.30
2022-10-19T22:01:07.678Z,7.80
2022-10-19T22:03:38.702Z,6.10
2022-10-19T22:06:10.580Z,7.30
2022-10-19T22:08:44.782Z,8.70
2022-10-19T22:11:16.752Z,6.90
2022-10-19T22:13:47.652Z,6.60
2022-10-19T22:16:20.288Z,11.70
2022-10-19T22:18:51.995Z,7.50
2022-10-19T22:21:24.832Z,8.10
2022-10-19T22:23:57.847Z,8.40
2022-10-19T22:26:31.499Z,8.20
2022-10-19T22:29:03.672Z,6.30
2022-10-19T22:31:35.106Z,6.70
2022-10-19T22:34:08.440Z,6.30
2022-10-19T22:36:39.384Z,6.20
2022-10-19T22:39:10.730Z,11.20
2022-10-19T22:42:34.630Z,12.10
2022-10-19T22:45:24.118Z,7.10
2022-10-19T22:48:35.698Z,6.10
2022-10-19T22:51:41.667Z,5.90
2022-10-19T22:54:12.576Z,7.80
2022-10-19T22:56:43.977Z,6.20
2022-10-19T22:59:15.087Z,7.40
2022-10-19T23:01:46.104Z,7.10
2022-10-19T23:04:17.208Z,6.90
2022-10-19T23:06:48.439Z,6.10
2022-10-19T23:09:19.861Z,7.00
2022-10-19T23:11:50.803Z,5.80
2022-10-19T23:14:21.708Z,5.70
2022-10-19T23:16:52.692Z,5.90
2022-10-19T23:19:23.899Z,5.20
2022-10-19T23:21:54.605Z,6.30
2022-10-19T23:24:25.724Z,6.40
2022-10-19T23:26:56.967Z,7.20
2022-10-19T23:29:28.401Z,8.70
2022-10-19T23:31:59.430Z,6.70
2022-10-19T23:34:30.467Z,6.40
2022-10-19T23:37:01.334Z,5.30
2022-10-19T23:39:32.319Z,5.50
2022-10-19T23:42:03.205Z,5.10
2022-10-19T23:44:34.253Z,4.80
2022-10-19T23:47:05.272Z,4.90
2022-10-19T23:49:36.175Z,4.90
2022-10-19T23:52:07.370Z,5.20
2022-10-19T23:54:38.381Z,4.20
2022-10-19T23:57:09.250Z,4.90
2022-10-19T23:59:40.248Z,4.80
